Mariposa, CA (95338)

2:13 AM PST on December 06, 2016 (GMT -0800)
Western Yosemite Region -Mariposa, Mariposa County, CA | | Change Station

Elev 2224 ft 37.50 °N, 119.98 °W | Updated 9 minutes ago

Scattered Clouds
Scattered Clouds
40.3 °F
Feels Like 40 °F
N
0.0
Wind Variable Wind from SE
Gusts 0.0 mph

Today
High -- | Low -- °F
--% Chance of Precip.
Yesterday
High -- | Low -- °F
Precip. -- in
Pressure 30.03 in
Visibility 2.5 miles
Clouds Few 4200 ft
Scattered Clouds 12000 ft
Windchill 40 °F
Dew Point 37 °F
Humidity 88%
Rainfall 0.00 in
Snow Depth Not available.
7:00 AM 4:41 PM
Waxing Crescent, 40% visible
SPECI KMCE 061011Z AUTO 00000KT 2 1/2SM BR FEW042 SCT120 07/06 A3003 RMK AO2 T00670056 TSNO
Pressure 30.03 in
Visibility 2.5 miles
Clouds Few 4200 ft
Scattered Clouds 12000 ft
Windchill 40 °F
Dew Point 37 °F
Humidity 88%
Rainfall 0.00 in
Snow Depth Not available.
7:00 AM 4:41 PM
Waxing Crescent, 40% visible
SPECI KMCE 061011Z AUTO 00000KT 2 1/2SM BR FEW042 SCT120 07/06 A3003 RMK AO2 T00670056 TSNO

10-Day Weather Forecast

Almanac

Astronomy

Dec. 06, 2016 Rise Set
Actual Time
Civil Twilight
Nautical Twilight
Astronomical Twilight
Moon
Length of Visible Light
Length of Day
Tomorrow will be .
, % of the Moon is Illuminated

Today's Extremes

State Highs State Lows

Community

WunderPhotos

Upload Photos

1,955,935 photos uploaded!

WunderBlog® & News

Nearby

Air Quality

  Air Quality AQ Index Pollutant
Not available.

Snow Depth

Station Depth Elevation

Earthquake Activity

City Distance Mag. Time & Date
Minimum magnitude displayed is 2.5.

Coastal Water Temperatures

Place Temperature

Stations

Nearby Weather Stations

Station Location Temp. Windchill Dew Point Humidity Wind Precip. Elev Updated Type
                   

Watches & Warnings

There are currently no watches in effect.